sensor_id;sensor_type;location;lat;lon;timestamp;P1;durP1;ratioP1;P2;durP2;ratioP2
74309;SDS011;62722;51.142;17.052;2022-09-21T00:00:24;4.75;;;2.15;;
74309;SDS011;62722;51.142;17.052;2022-09-21T00:03:13;5.65;;;2.40;;
74309;SDS011;62722;51.142;17.052;2022-09-21T00:05:40;5.50;;;2.80;;
74309;SDS011;62722;51.142;17.052;2022-09-21T00:08:12;5.82;;;2.78;;
74309;SDS011;62722;51.142;17.052;2022-09-21T00:10:41;5.90;;;2.95;;
74309;SDS011;62722;51.142;17.052;2022-09-21T00:13:09;3.75;;;2.55;;
74309;SDS011;62722;51.142;17.052;2022-09-21T00:15:38;5.55;;;2.47;;
74309;SDS011;62722;51.142;17.052;2022-09-21T00:18:06;4.50;;;2.70;;
74309;SDS011;62722;51.142;17.052;2022-09-21T00:20:33;3.65;;;2.25;;
74309;SDS011;62722;51.142;17.052;2022-09-21T00:23:00;5.90;;;2.65;;
74309;SDS011;62722;51.142;17.052;2022-09-21T00:25:27;4.80;;;2.38;;
74309;SDS011;62722;51.142;17.052;2022-09-21T00:27:56;4.97;;;2.47;;
74309;SDS011;62722;51.142;17.052;2022-09-21T00:30:23;4.13;;;2.30;;
74309;SDS011;62722;51.142;17.052;2022-09-21T00:32:52;4.78;;;2.83;;
74309;SDS011;62722;51.142;17.052;2022-09-21T00:35:19;5.28;;;2.40;;
74309;SDS011;62722;51.142;17.052;2022-09-21T00:37:46;4.80;;;2.60;;
74309;SDS011;62722;51.142;17.052;2022-09-21T00:40:14;4.93;;;2.60;;
74309;SDS011;62722;51.142;17.052;2022-09-21T00:42:41;4.47;;;2.45;;
74309;SDS011;62722;51.142;17.052;2022-09-21T00:45:10;4.38;;;2.50;;
74309;SDS011;62722;51.142;17.052;2022-09-21T00:47:46;3.30;;;2.17;;
74309;SDS011;62722;51.142;17.052;2022-09-21T00:50:17;7.63;;;2.72;;
74309;SDS011;62722;51.142;17.052;2022-09-21T00:52:46;4.63;;;2.75;;
74309;SDS011;62722;51.142;17.052;2022-09-21T00:55:17;4.93;;;2.42;;
74309;SDS011;62722;51.142;17.052;2022-09-21T00:57:48;4.88;;;2.38;;
74309;SDS011;62722;51.142;17.052;2022-09-21T01:00:21;4.05;;;2.60;;
74309;SDS011;62722;51.142;17.052;2022-09-21T01:02:48;5.20;;;2.63;;
74309;SDS011;62722;51.142;17.052;2022-09-21T01:05:26;4.30;;;2.42;;
74309;SDS011;62722;51.142;17.052;2022-09-21T01:07:53;4.35;;;2.30;;
74309;SDS011;62722;51.142;17.052;2022-09-21T01:10:22;3.67;;;2.40;;
74309;SDS011;62722;51.142;17.052;2022-09-21T01:13:00;4.50;;;2.65;;
74309;SDS011;62722;51.142;17.052;2022-09-21T01:15:38;4.95;;;2.45;;
74309;SDS011;62722;51.142;17.052;2022-09-21T01:18:13;5.53;;;3.10;;
74309;SDS011;62722;51.142;17.052;2022-09-21T01:21:06;4.18;;;2.40;;
74309;SDS011;62722;51.142;17.052;2022-09-21T01:23:44;3.75;;;2.40;;
74309;SDS011;62722;51.142;17.052;2022-09-21T01:26:32;6.95;;;3.83;;
74309;SDS011;62722;51.142;17.052;2022-09-21T01:29:17;4.32;;;2.65;;
74309;SDS011;62722;51.142;17.052;2022-09-21T01:31:49;4.93;;;2.65;;
74309;SDS011;62722;51.142;17.052;2022-09-21T01:34:22;4.88;;;2.70;;
74309;SDS011;62722;51.142;17.052;2022-09-21T01:36:55;3.90;;;2.38;;
74309;SDS011;62722;51.142;17.052;2022-09-21T01:39:25;4.40;;;2.75;;
74309;SDS011;62722;51.142;17.052;2022-09-21T01:41:55;7.90;;;3.55;;
74309;SDS011;62722;51.142;17.052;2022-09-21T01:44:26;5.47;;;2.53;;
74309;SDS011;62722;51.142;17.052;2022-09-21T01:46:58;4.60;;;2.40;;
74309;SDS011;62722;51.142;17.052;2022-09-21T01:49:28;4.22;;;2.25;;
74309;SDS011;62722;51.142;17.052;2022-09-21T01:51:59;4.82;;;2.58;;
74309;SDS011;62722;51.142;17.052;2022-09-21T01:54:34;5.05;;;2.70;;
74309;SDS011;62722;51.142;17.052;2022-09-21T01:57:08;4.22;;;2.65;;
74309;SDS011;62722;51.142;17.052;2022-09-21T01:59:45;4.97;;;2.67;;
74309;SDS011;62722;51.142;17.052;2022-09-21T02:02:17;4.57;;;2.40;;
74309;SDS011;62722;51.142;17.052;2022-09-21T02:04:50;4.93;;;2.25;;
74309;SDS011;62722;51.142;17.052;2022-09-21T02:07:18;5.65;;;2.83;;
74309;SDS011;62722;51.142;17.052;2022-09-21T02:09:45;5.38;;;2.95;;
74309;SDS011;62722;51.142;17.052;2022-09-21T02:12:13;4.40;;;2.85;;
74309;SDS011;62722;51.142;17.052;2022-09-21T02:14:41;5.65;;;2.72;;
74309;SDS011;62722;51.142;17.052;2022-09-21T02:17:13;4.70;;;2.55;;
74309;SDS011;62722;51.142;17.052;2022-09-21T02:19:52;5.95;;;2.80;;
74309;SDS011;62722;51.142;17.052;2022-09-21T02:22:30;4.55;;;2.95;;
74309;SDS011;62722;51.142;17.052;2022-09-21T02:25:04;6.50;;;3.50;;
74309;SDS011;62722;51.142;17.052;2022-09-21T02:27:35;7.95;;;3.40;;
74309;SDS011;62722;51.142;17.052;2022-09-21T02:30:12;6.47;;;3.35;;
74309;SDS011;62722;51.142;17.052;2022-09-21T02:32:43;5.35;;;2.92;;
74309;SDS011;62722;51.142;17.052;2022-09-21T02:35:19;7.53;;;3.00;;
74309;SDS011;62722;51.142;17.052;2022-09-21T02:37:57;6.05;;;3.45;;
74309;SDS011;62722;51.142;17.052;2022-09-21T02:40:34;9.18;;;3.60;;
74309;SDS011;62722;51.142;17.052;2022-09-21T02:43:06;6.35;;;3.78;;
74309;SDS011;62722;51.142;17.052;2022-09-21T02:45:40;4.90;;;3.38;;
74309;SDS011;62722;51.142;17.052;2022-09-21T02:48:12;6.03;;;3.60;;
74309;SDS011;62722;51.142;17.052;2022-09-21T02:50:43;7.57;;;3.80;;
74309;SDS011;62722;51.142;17.052;2022-09-21T02:53:14;6.35;;;3.58;;
74309;SDS011;62722;51.142;17.052;2022-09-21T02:55:47;8.27;;;3.85;;
74309;SDS011;62722;51.142;17.052;2022-09-21T02:58:15;6.03;;;3.97;;
74309;SDS011;62722;51.142;17.052;2022-09-21T03:00:46;8.40;;;4.68;;
74309;SDS011;62722;51.142;17.052;2022-09-21T03:03:14;9.15;;;4.70;;
74309;SDS011;62722;51.142;17.052;2022-09-21T03:05:43;8.50;;;4.63;;
74309;SDS011;62722;51.142;17.052;2022-09-21T03:08:12;10.32;;;5.07;;
74309;SDS011;62722;51.142;17.052;2022-09-21T03:10:39;10.02;;;5.20;;
74309;SDS011;62722;51.142;17.052;2022-09-21T03:13:06;11.15;;;5.55;;
74309;SDS011;62722;51.142;17.052;2022-09-21T03:15:34;13.07;;;5.72;;
74309;SDS011;62722;51.142;17.052;2022-09-21T03:18:04;9.43;;;5.25;;
74309;SDS011;62722;51.142;17.052;2022-09-21T03:23:00;10.75;;;5.63;;
74309;SDS011;62722;51.142;17.052;2022-09-21T03:25:28;10.45;;;5.57;;
74309;SDS011;62722;51.142;17.052;2022-09-21T03:27:56;9.52;;;5.70;;
74309;SDS011;62722;51.142;17.052;2022-09-21T03:30:24;11.63;;;6.10;;
74309;SDS011;62722;51.142;17.052;2022-09-21T03:32:54;10.77;;;5.97;;
74309;SDS011;62722;51.142;17.052;2022-09-21T03:35:23;11.23;;;5.85;;
74309;SDS011;62722;51.142;17.052;2022-09-21T03:37:51;10.10;;;5.85;;
74309;SDS011;62722;51.142;17.052;2022-09-21T03:40:19;12.07;;;6.32;;
74309;SDS011;62722;51.142;17.052;2022-09-21T03:42:47;11.25;;;5.90;;
74309;SDS011;62722;51.142;17.052;2022-09-21T03:45:15;14.50;;;7.38;;
74309;SDS011;62722;51.142;17.052;2022-09-21T03:47:42;11.10;;;5.78;;
74309;SDS011;62722;51.142;17.052;2022-09-21T03:50:12;12.75;;;6.22;;
74309;SDS011;62722;51.142;17.052;2022-09-21T03:52:41;10.23;;;5.68;;
74309;SDS011;62722;51.142;17.052;2022-09-21T03:55:08;12.52;;;5.50;;
74309;SDS011;62722;51.142;17.052;2022-09-21T03:57:35;11.80;;;6.03;;
74309;SDS011;62722;51.142;17.052;2022-09-21T04:00:04;11.95;;;5.43;;
74309;SDS011;62722;51.142;17.052;2022-09-21T04:02:34;12.57;;;6.40;;
74309;SDS011;62722;51.142;17.052;2022-09-21T04:05:01;10.98;;;5.50;;
74309;SDS011;62722;51.142;17.052;2022-09-21T04:07:29;11.77;;;6.20;;
74309;SDS011;62722;51.142;17.052;2022-09-21T04:09:59;10.77;;;6.03;;
74309;SDS011;62722;51.142;17.052;2022-09-21T04:12:27;11.75;;;6.00;;
74309;SDS011;62722;51.142;17.052;2022-09-21T04:14:54;11.50;;;5.50;;
74309;SDS011;62722;51.142;17.052;2022-09-21T04:17:21;12.85;;;6.15;;
74309;SDS011;62722;51.142;17.052;2022-09-21T04:19:48;10.25;;;5.57;;
74309;SDS011;62722;51.142;17.052;2022-09-21T04:22:15;12.98;;;6.45;;
74309;SDS011;62722;51.142;17.052;2022-09-21T04:24:43;10.80;;;5.93;;
74309;SDS011;62722;51.142;17.052;2022-09-21T04:27:11;14.02;;;6.28;;
74309;SDS011;62722;51.142;17.052;2022-09-21T04:29:38;13.55;;;6.22;;
74309;SDS011;62722;51.142;17.052;2022-09-21T04:32:06;11.93;;;6.05;;
74309;SDS011;62722;51.142;17.052;2022-09-21T04:34:33;9.98;;;5.45;;
74309;SDS011;62722;51.142;17.052;2022-09-21T04:37:00;10.93;;;5.63;;
74309;SDS011;62722;51.142;17.052;2022-09-21T04:39:28;13.40;;;6.28;;
74309;SDS011;62722;51.142;17.052;2022-09-21T04:41:55;10.30;;;6.28;;
74309;SDS011;62722;51.142;17.052;2022-09-21T04:44:24;12.35;;;5.97;;
74309;SDS011;62722;51.142;17.052;2022-09-21T04:46:51;13.35;;;6.93;;
74309;SDS011;62722;51.142;17.052;2022-09-21T04:49:18;12.68;;;6.40;;
74309;SDS011;62722;51.142;17.052;2022-09-21T04:51:45;10.85;;;5.70;;
74309;SDS011;62722;51.142;17.052;2022-09-21T04:54:12;13.98;;;6.70;;
74309;SDS011;62722;51.142;17.052;2022-09-21T04:56:39;12.35;;;6.45;;
74309;SDS011;62722;51.142;17.052;2022-09-21T04:59:06;12.45;;;6.32;;
74309;SDS011;62722;51.142;17.052;2022-09-21T05:01:35;11.73;;;6.07;;
74309;SDS011;62722;51.142;17.052;2022-09-21T05:04:02;12.70;;;5.93;;
74309;SDS011;62722;51.142;17.052;2022-09-21T05:06:29;15.32;;;6.80;;
74309;SDS011;62722;51.142;17.052;2022-09-21T05:08:58;13.27;;;6.40;;
74309;SDS011;62722;51.142;17.052;2022-09-21T05:11:48;16.13;;;7.15;;
74309;SDS011;62722;51.142;17.052;2022-09-21T05:14:16;13.18;;;6.68;;
74309;SDS011;62722;51.142;17.052;2022-09-21T05:16:45;13.10;;;6.38;;
74309;SDS011;62722;51.142;17.052;2022-09-21T05:19:14;18.60;;;6.82;;
74309;SDS011;62722;51.142;17.052;2022-09-21T05:21:41;13.88;;;6.90;;
74309;SDS011;62722;51.142;17.052;2022-09-21T05:24:08;12.48;;;6.25;;
74309;SDS011;62722;51.142;17.052;2022-09-21T05:26:36;12.35;;;6.85;;
74309;SDS011;62722;51.142;17.052;2022-09-21T05:29:03;12.93;;;6.35;;
74309;SDS011;62722;51.142;17.052;2022-09-21T05:31:34;12.48;;;6.07;;
74309;SDS011;62722;51.142;17.052;2022-09-21T05:34:09;10.90;;;5.80;;
74309;SDS011;62722;51.142;17.052;2022-09-21T05:36:48;11.65;;;5.90;;
74309;SDS011;62722;51.142;17.052;2022-09-21T05:39:23;13.77;;;6.18;;
74309;SDS011;62722;51.142;17.052;2022-09-21T05:41:51;12.13;;;6.40;;
74309;SDS011;62722;51.142;17.052;2022-09-21T05:44:19;18.42;;;8.90;;
74309;SDS011;62722;51.142;17.052;2022-09-21T05:46:48;17.10;;;6.45;;
74309;SDS011;62722;51.142;17.052;2022-09-21T05:49:21;14.60;;;7.22;;
74309;SDS011;62722;51.142;17.052;2022-09-21T05:51:56;14.15;;;7.20;;
74309;SDS011;62722;51.142;17.052;2022-09-21T05:54:33;16.20;;;7.07;;
74309;SDS011;62722;51.142;17.052;2022-09-21T05:57:10;14.15;;;7.10;;
74309;SDS011;62722;51.142;17.052;2022-09-21T05:59:45;13.73;;;6.22;;
74309;SDS011;62722;51.142;17.052;2022-09-21T06:02:24;13.75;;;7.00;;
74309;SDS011;62722;51.142;17.052;2022-09-21T06:05:12;15.52;;;7.07;;
74309;SDS011;62722;51.142;17.052;2022-09-21T06:07:44;14.52;;;7.07;;
74309;SDS011;62722;51.142;17.052;2022-09-21T06:10:11;16.88;;;7.57;;
74309;SDS011;62722;51.142;17.052;2022-09-21T06:12:39;13.65;;;7.10;;
74309;SDS011;62722;51.142;17.052;2022-09-21T06:15:07;14.05;;;6.70;;
74309;SDS011;62722;51.142;17.052;2022-09-21T06:20:05;14.43;;;6.70;;
74309;SDS011;62722;51.142;17.052;2022-09-21T06:22:35;15.10;;;7.47;;
74309;SDS011;62722;51.142;17.052;2022-09-21T06:25:02;16.17;;;7.55;;
74309;SDS011;62722;51.142;17.052;2022-09-21T06:27:29;12.85;;;6.65;;
74309;SDS011;62722;51.142;17.052;2022-09-21T06:29:57;15.15;;;6.65;;
74309;SDS011;62722;51.142;17.052;2022-09-21T06:32:24;14.70;;;7.43;;
74309;SDS011;62722;51.142;17.052;2022-09-21T06:34:51;18.33;;;8.07;;
74309;SDS011;62722;51.142;17.052;2022-09-21T06:37:18;17.00;;;7.90;;
74309;SDS011;62722;51.142;17.052;2022-09-21T06:39:47;17.17;;;7.70;;
74309;SDS011;62722;51.142;17.052;2022-09-21T06:42:14;15.55;;;7.53;;
74309;SDS011;62722;51.142;17.052;2022-09-21T06:44:41;14.57;;;7.40;;
74309;SDS011;62722;51.142;17.052;2022-09-21T06:47:08;13.57;;;7.25;;
74309;SDS011;62722;51.142;17.052;2022-09-21T06:49:35;16.33;;;7.47;;
74309;SDS011;62722;51.142;17.052;2022-09-21T06:52:03;16.20;;;6.88;;
74309;SDS011;62722;51.142;17.052;2022-09-21T06:54:30;11.65;;;6.05;;
74309;SDS011;62722;51.142;17.052;2022-09-21T06:56:58;13.07;;;6.32;;
74309;SDS011;62722;51.142;17.052;2022-09-21T06:59:26;11.50;;;5.97;;
74309;SDS011;62722;51.142;17.052;2022-09-21T07:01:54;12.27;;;6.10;;
74309;SDS011;62722;51.142;17.052;2022-09-21T07:04:22;15.90;;;7.38;;
74309;SDS011;62722;51.142;17.052;2022-09-21T07:06:50;11.48;;;5.88;;
74309;SDS011;62722;51.142;17.052;2022-09-21T07:09:17;12.93;;;5.88;;
74309;SDS011;62722;51.142;17.052;2022-09-21T07:11:44;13.80;;;6.88;;
74309;SDS011;62722;51.142;17.052;2022-09-21T07:14:13;13.07;;;6.97;;
74309;SDS011;62722;51.142;17.052;2022-09-21T07:16:40;12.40;;;6.25;;
74309;SDS011;62722;51.142;17.052;2022-09-21T07:19:08;13.07;;;6.25;;
74309;SDS011;62722;51.142;17.052;2022-09-21T07:21:35;12.73;;;6.57;;
74309;SDS011;62722;51.142;17.052;2022-09-21T07:24:02;13.60;;;7.20;;
74309;SDS011;62722;51.142;17.052;2022-09-21T07:26:29;15.68;;;7.25;;
74309;SDS011;62722;51.142;17.052;2022-09-21T07:28:58;17.05;;;8.20;;
74309;SDS011;62722;51.142;17.052;2022-09-21T07:31:26;15.73;;;8.40;;
74309;SDS011;62722;51.142;17.052;2022-09-21T07:33:55;15.15;;;7.82;;
74309;SDS011;62722;51.142;17.052;2022-09-21T07:36:23;14.73;;;7.43;;
74309;SDS011;62722;51.142;17.052;2022-09-21T07:38:51;14.52;;;7.15;;
74309;SDS011;62722;51.142;17.052;2022-09-21T07:41:19;15.77;;;7.57;;
74309;SDS011;62722;51.142;17.052;2022-09-21T07:43:47;15.40;;;8.05;;
74309;SDS011;62722;51.142;17.052;2022-09-21T07:46:14;14.18;;;7.45;;
74309;SDS011;62722;51.142;17.052;2022-09-21T07:48:43;15.73;;;7.80;;
74309;SDS011;62722;51.142;17.052;2022-09-21T07:51:11;15.10;;;7.40;;
74309;SDS011;62722;51.142;17.052;2022-09-21T07:53:39;15.75;;;7.68;;
74309;SDS011;62722;51.142;17.052;2022-09-21T07:56:09;14.45;;;7.70;;
74309;SDS011;62722;51.142;17.052;2022-09-21T07:58:41;14.00;;;7.50;;
74309;SDS011;62722;51.142;17.052;2022-09-21T08:01:26;13.88;;;7.53;;
74309;SDS011;62722;51.142;17.052;2022-09-21T08:03:56;13.70;;;7.38;;
74309;SDS011;62722;51.142;17.052;2022-09-21T08:06:25;14.85;;;7.43;;
74309;SDS011;62722;51.142;17.052;2022-09-21T08:08:54;14.48;;;7.93;;
74309;SDS011;62722;51.142;17.052;2022-09-21T08:11:22;13.93;;;7.10;;
74309;SDS011;62722;51.142;17.052;2022-09-21T08:13:51;14.45;;;7.90;;
74309;SDS011;62722;51.142;17.052;2022-09-21T08:16:19;14.80;;;7.53;;
74309;SDS011;62722;51.142;17.052;2022-09-21T08:18:47;17.10;;;8.48;;
74309;SDS011;62722;51.142;17.052;2022-09-21T08:21:16;13.32;;;7.47;;
74309;SDS011;62722;51.142;17.052;2022-09-21T08:23:44;16.55;;;8.68;;
74309;SDS011;62722;51.142;17.052;2022-09-21T08:26:13;14.50;;;8.13;;
74309;SDS011;62722;51.142;17.052;2022-09-21T08:28:43;13.82;;;7.63;;
74309;SDS011;62722;51.142;17.052;2022-09-21T08:31:14;15.07;;;8.73;;
74309;SDS011;62722;51.142;17.052;2022-09-21T08:33:43;16.42;;;8.20;;
74309;SDS011;62722;51.142;17.052;2022-09-21T08:36:10;15.20;;;8.60;;
74309;SDS011;62722;51.142;17.052;2022-09-21T08:38:39;15.68;;;8.63;;
74309;SDS011;62722;51.142;17.052;2022-09-21T08:41:12;15.10;;;8.10;;
74309;SDS011;62722;51.142;17.052;2022-09-21T08:43:42;12.98;;;8.02;;
74309;SDS011;62722;51.142;17.052;2022-09-21T08:46:11;14.48;;;7.90;;
74309;SDS011;62722;51.142;17.052;2022-09-21T08:48:45;13.57;;;7.47;;
74309;SDS011;62722;51.142;17.052;2022-09-21T08:51:19;16.15;;;7.95;;
74309;SDS011;62722;51.142;17.052;2022-09-21T08:53:52;14.18;;;8.05;;
74309;SDS011;62722;51.142;17.052;2022-09-21T08:56:22;11.45;;;7.30;;
74309;SDS011;62722;51.142;17.052;2022-09-21T08:58:52;13.82;;;7.55;;
74309;SDS011;62722;51.142;17.052;2022-09-21T09:01:23;12.57;;;7.68;;
74309;SDS011;62722;51.142;17.052;2022-09-21T09:04:03;11.75;;;7.35;;
74309;SDS011;62722;51.142;17.052;2022-09-21T09:06:49;10.02;;;6.30;;
74309;SDS011;62722;51.142;17.052;2022-09-21T09:09:32;12.63;;;6.28;;
74309;SDS011;62722;51.142;17.052;2022-09-21T09:12:13;12.02;;;6.68;;
74309;SDS011;62722;51.142;17.052;2022-09-21T09:14:49;9.98;;;6.57;;
74309;SDS011;62722;51.142;17.052;2022-09-21T09:17:33;10.43;;;6.72;;
74309;SDS011;62722;51.142;17.052;2022-09-21T09:20:14;11.02;;;6.50;;
74309;SDS011;62722;51.142;17.052;2022-09-21T09:22:45;11.20;;;6.68;;
74309;SDS011;62722;51.142;17.052;2022-09-21T09:25:19;11.30;;;6.80;;
74309;SDS011;62722;51.142;17.052;2022-09-21T09:27:52;8.95;;;6.22;;
74309;SDS011;62722;51.142;17.052;2022-09-21T09:30:22;11.73;;;5.82;;
74309;SDS011;62722;51.142;17.052;2022-09-21T09:32:53;10.18;;;5.78;;
74309;SDS011;62722;51.142;17.052;2022-09-21T09:35:24;9.02;;;4.95;;
74309;SDS011;62722;51.142;17.052;2022-09-21T09:37:55;8.57;;;5.05;;
74309;SDS011;62722;51.142;17.052;2022-09-21T09:40:42;7.57;;;5.13;;
74309;SDS011;62722;51.142;17.052;2022-09-21T09:43:21;7.70;;;5.30;;
74309;SDS011;62722;51.142;17.052;2022-09-21T09:46:06;7.45;;;4.75;;
74309;SDS011;62722;51.142;17.052;2022-09-21T09:48:48;6.03;;;4.20;;
74309;SDS011;62722;51.142;17.052;2022-09-21T09:51:37;7.43;;;4.88;;
74309;SDS011;62722;51.142;17.052;2022-09-21T09:54:07;6.72;;;4.05;;
74309;SDS011;62722;51.142;17.052;2022-09-21T09:56:41;8.07;;;4.57;;
74309;SDS011;62722;51.142;17.052;2022-09-21T09:59:10;7.05;;;4.20;;
74309;SDS011;62722;51.142;17.052;2022-09-21T10:01:45;5.82;;;3.90;;
74309;SDS011;62722;51.142;17.052;2022-09-21T10:04:25;5.95;;;4.03;;
74309;SDS011;62722;51.142;17.052;2022-09-21T10:06:52;5.57;;;3.97;;
74309;SDS011;62722;51.142;17.052;2022-09-21T10:09:22;6.05;;;4.20;;
74309;SDS011;62722;51.142;17.052;2022-09-21T10:11:54;6.70;;;4.15;;
74309;SDS011;62722;51.142;17.052;2022-09-21T10:14:24;6.20;;;3.45;;
74309;SDS011;62722;51.142;17.052;2022-09-21T10:16:54;6.22;;;4.03;;
74309;SDS011;62722;51.142;17.052;2022-09-21T10:19:24;5.97;;;3.72;;
74309;SDS011;62722;51.142;17.052;2022-09-21T10:21:55;7.18;;;4.00;;
74309;SDS011;62722;51.142;17.052;2022-09-21T10:24:24;6.35;;;3.58;;
74309;SDS011;62722;51.142;17.052;2022-09-21T10:27:00;5.43;;;3.63;;
74309;SDS011;62722;51.142;17.052;2022-09-21T10:29:31;5.80;;;3.75;;
74309;SDS011;62722;51.142;17.052;2022-09-21T10:32:16;6.25;;;3.53;;
74309;SDS011;62722;51.142;17.052;2022-09-21T10:37:45;5.88;;;3.70;;
74309;SDS011;62722;51.142;17.052;2022-09-21T10:40:21;5.97;;;3.50;;
74309;SDS011;62722;51.142;17.052;2022-09-21T10:42:53;6.43;;;4.10;;
74309;SDS011;62722;51.142;17.052;2022-09-21T10:45:23;6.20;;;3.60;;
74309;SDS011;62722;51.142;17.052;2022-09-21T10:47:54;5.35;;;3.45;;
74309;SDS011;62722;51.142;17.052;2022-09-21T10:50:24;4.50;;;3.08;;
74309;SDS011;62722;51.142;17.052;2022-09-21T10:52:54;5.63;;;3.50;;
74309;SDS011;62722;51.142;17.052;2022-09-21T10:55:27;6.00;;;3.28;;
74309;SDS011;62722;51.142;17.052;2022-09-21T10:57:58;5.13;;;3.70;;
74309;SDS011;62722;51.142;17.052;2022-09-21T11:00:30;5.00;;;2.95;;
74309;SDS011;62722;51.142;17.052;2022-09-21T11:03:24;5.40;;;3.08;;
74309;SDS011;62722;51.142;17.052;2022-09-21T11:05:58;3.75;;;2.55;;
74309;SDS011;62722;51.142;17.052;2022-09-21T11:08:32;5.47;;;2.83;;
74309;SDS011;62722;51.142;17.052;2022-09-21T11:11:07;4.35;;;2.45;;
74309;SDS011;62722;51.142;17.052;2022-09-21T11:13:45;4.05;;;2.30;;
74309;SDS011;62722;51.142;17.052;2022-09-21T11:16:21;5.07;;;2.55;;
74309;SDS011;62722;51.142;17.052;2022-09-21T11:18:59;4.05;;;1.90;;
74309;SDS011;62722;51.142;17.052;2022-09-21T11:21:34;4.47;;;2.30;;
74309;SDS011;62722;51.142;17.052;2022-09-21T11:24:15;3.92;;;2.22;;
74309;SDS011;62722;51.142;17.052;2022-09-21T11:26:53;4.32;;;2.15;;
74309;SDS011;62722;51.142;17.052;2022-09-21T11:29:28;3.63;;;2.20;;
74309;SDS011;62722;51.142;17.052;2022-09-21T11:32:03;3.05;;;1.55;;
74309;SDS011;62722;51.142;17.052;2022-09-21T11:34:44;3.38;;;1.95;;
74309;SDS011;62722;51.142;17.052;2022-09-21T11:37:39;3.22;;;1.83;;
74309;SDS011;62722;51.142;17.052;2022-09-21T11:40:21;3.90;;;1.70;;
74309;SDS011;62722;51.142;17.052;2022-09-21T11:43:01;3.25;;;1.63;;
74309;SDS011;62722;51.142;17.052;2022-09-21T11:45:48;3.03;;;1.70;;
74309;SDS011;62722;51.142;17.052;2022-09-21T11:48:28;4.03;;;1.90;;
74309;SDS011;62722;51.142;17.052;2022-09-21T11:51:08;4.60;;;2.17;;
74309;SDS011;62722;51.142;17.052;2022-09-21T11:53:52;4.93;;;2.13;;
74309;SDS011;62722;51.142;17.052;2022-09-21T11:56:35;3.97;;;2.08;;
74309;SDS011;62722;51.142;17.052;2022-09-21T12:05:01;2.85;;;1.45;;
74309;SDS011;62722;51.142;17.052;2022-09-21T12:07:41;2.63;;;1.50;;
74309;SDS011;62722;51.142;17.052;2022-09-21T12:10:34;3.65;;;1.30;;
74309;SDS011;62722;51.142;17.052;2022-09-21T12:13:05;2.95;;;1.73;;
74309;SDS011;62722;51.142;17.052;2022-09-21T12:15:42;3.60;;;1.90;;
74309;SDS011;62722;51.142;17.052;2022-09-21T12:18:18;2.55;;;1.50;;
74309;SDS011;62722;51.142;17.052;2022-09-21T12:20:57;3.20;;;1.60;;
74309;SDS011;62722;51.142;17.052;2022-09-21T12:23:35;3.03;;;1.65;;
74309;SDS011;62722;51.142;17.052;2022-09-21T12:26:07;3.47;;;1.67;;
74309;SDS011;62722;51.142;17.052;2022-09-21T12:28:37;3.10;;;1.63;;
74309;SDS011;62722;51.142;17.052;2022-09-21T12:31:13;3.05;;;1.48;;
74309;SDS011;62722;51.142;17.052;2022-09-21T12:33:48;3.17;;;1.67;;
74309;SDS011;62722;51.142;17.052;2022-09-21T12:36:19;3.08;;;1.70;;
74309;SDS011;62722;51.142;17.052;2022-09-21T12:38:52;2.83;;;1.48;;
74309;SDS011;62722;51.142;17.052;2022-09-21T12:41:32;2.40;;;1.40;;
74309;SDS011;62722;51.142;17.052;2022-09-21T12:44:11;3.17;;;1.70;;
74309;SDS011;62722;51.142;17.052;2022-09-21T12:46:44;3.65;;;1.65;;
74309;SDS011;62722;51.142;17.052;2022-09-21T12:49:16;3.58;;;1.55;;
74309;SDS011;62722;51.142;17.052;2022-09-21T12:51:48;4.07;;;1.58;;
74309;SDS011;62722;51.142;17.052;2022-09-21T12:54:23;2.72;;;1.52;;
74309;SDS011;62722;51.142;17.052;2022-09-21T12:56:57;3.67;;;1.52;;
74309;SDS011;62722;51.142;17.052;2022-09-21T12:59:36;2.85;;;1.48;;
74309;SDS011;62722;51.142;17.052;2022-09-21T13:02:14;2.40;;;1.60;;
74309;SDS011;62722;51.142;17.052;2022-09-21T13:04:52;2.70;;;1.88;;
74309;SDS011;62722;51.142;17.052;2022-09-21T13:10:37;2.97;;;1.73;;
74309;SDS011;62722;51.142;17.052;2022-09-21T13:13:16;2.83;;;1.58;;
74309;SDS011;62722;51.142;17.052;2022-09-21T13:15:47;3.30;;;1.65;;
74309;SDS011;62722;51.142;17.052;2022-09-21T13:18:18;3.55;;;1.55;;
74309;SDS011;62722;51.142;17.052;2022-09-21T13:20:49;3.10;;;1.52;;
74309;SDS011;62722;51.142;17.052;2022-09-21T13:23:20;2.88;;;1.60;;
74309;SDS011;62722;51.142;17.052;2022-09-21T13:25:59;2.90;;;1.55;;
74309;SDS011;62722;51.142;17.052;2022-09-21T13:28:39;2.88;;;1.40;;
74309;SDS011;62722;51.142;17.052;2022-09-21T13:31:29;2.80;;;1.45;;
74309;SDS011;62722;51.142;17.052;2022-09-21T13:34:14;3.13;;;1.40;;
74309;SDS011;62722;51.142;17.052;2022-09-21T13:39:49;2.67;;;1.40;;
74309;SDS011;62722;51.142;17.052;2022-09-21T13:42:48;2.88;;;1.50;;
74309;SDS011;62722;51.142;17.052;2022-09-21T13:48:17;3.65;;;1.40;;
74309;SDS011;62722;51.142;17.052;2022-09-21T13:50:49;3.25;;;1.60;;
74309;SDS011;62722;51.142;17.052;2022-09-21T13:53:17;3.10;;;1.65;;
74309;SDS011;62722;51.142;17.052;2022-09-21T13:55:48;3.22;;;1.60;;
74309;SDS011;62722;51.142;17.052;2022-09-21T13:58:20;3.08;;;1.75;;
74309;SDS011;62722;51.142;17.052;2022-09-21T14:00:50;2.28;;;1.58;;
74309;SDS011;62722;51.142;17.052;2022-09-21T14:03:22;2.80;;;1.50;;
74309;SDS011;62722;51.142;17.052;2022-09-21T14:05:59;4.32;;;1.90;;
74309;SDS011;62722;51.142;17.052;2022-09-21T14:08:34;3.78;;;1.90;;
74309;SDS011;62722;51.142;17.052;2022-09-21T14:11:06;3.60;;;1.98;;
74309;SDS011;62722;51.142;17.052;2022-09-21T14:13:37;2.97;;;1.70;;
74309;SDS011;62722;51.142;17.052;2022-09-21T14:22:34;2.70;;;1.60;;
74309;SDS011;62722;51.142;17.052;2022-09-21T14:25:29;2.42;;;1.60;;
74309;SDS011;62722;51.142;17.052;2022-09-21T14:28:19;2.88;;;1.40;;
74309;SDS011;62722;51.142;17.052;2022-09-21T14:31:03;2.47;;;1.50;;
74309;SDS011;62722;51.142;17.052;2022-09-21T14:33:36;2.28;;;1.40;;
74309;SDS011;62722;51.142;17.052;2022-09-21T14:36:15;2.45;;;1.60;;
74309;SDS011;62722;51.142;17.052;2022-09-21T14:38:46;3.63;;;1.73;;
74309;SDS011;62722;51.142;17.052;2022-09-21T14:41:19;2.60;;;1.80;;
74309;SDS011;62722;51.142;17.052;2022-09-21T14:43:50;2.10;;;1.67;;
74309;SDS011;62722;51.142;17.052;2022-09-21T14:46:33;2.72;;;1.60;;
74309;SDS011;62722;51.142;17.052;2022-09-21T14:49:20;2.83;;;1.80;;
74309;SDS011;62722;51.142;17.052;2022-09-21T14:51:59;3.67;;;1.95;;
74309;SDS011;62722;51.142;17.052;2022-09-21T14:54:35;5.22;;;2.40;;
74309;SDS011;62722;51.142;17.052;2022-09-21T14:57:14;2.75;;;1.80;;
74309;SDS011;62722;51.142;17.052;2022-09-21T15:00:03;3.05;;;1.88;;
74309;SDS011;62722;51.142;17.052;2022-09-21T15:02:47;2.97;;;1.80;;
74309;SDS011;62722;51.142;17.052;2022-09-21T15:05:23;2.47;;;1.73;;
74309;SDS011;62722;51.142;17.052;2022-09-21T15:11:08;3.35;;;1.98;;
74309;SDS011;62722;51.142;17.052;2022-09-21T15:13:43;5.57;;;2.35;;
74309;SDS011;62722;51.142;17.052;2022-09-21T15:16:24;3.63;;;2.03;;
74309;SDS011;62722;51.142;17.052;2022-09-21T15:19:14;3.17;;;2.10;;
74309;SDS011;62722;51.142;17.052;2022-09-21T15:21:47;2.72;;;1.90;;
74309;SDS011;62722;51.142;17.052;2022-09-21T15:24:19;2.88;;;2.13;;
74309;SDS011;62722;51.142;17.052;2022-09-21T15:26:51;4.80;;;1.83;;
74309;SDS011;62722;51.142;17.052;2022-09-21T15:29:24;3.25;;;2.03;;
74309;SDS011;62722;51.142;17.052;2022-09-21T15:31:53;3.10;;;2.10;;